createdAt,value
2018-12-05T00:00:53.848Z,89.60
2018-12-05T00:01:53.835Z,90.33
2018-12-05T00:02:53.817Z,89.91
2018-12-05T00:03:53.848Z,89.70
2018-12-05T00:04:53.814Z,89.91
2018-12-05T00:05:53.790Z,90.01
2018-12-05T00:06:53.790Z,89.39
2018-12-05T00:07:53.768Z,89.60
2018-12-05T00:08:53.776Z,89.18
2018-12-05T00:09:53.757Z,89.22
2018-12-05T00:10:53.747Z,89.32
2018-12-05T00:11:53.823Z,89.70
2018-12-05T00:12:53.722Z,89.18
2018-12-05T00:13:53.744Z,88.98
2018-12-05T00:14:53.692Z,89.22
2018-12-05T00:15:53.690Z,88.76
2018-12-05T00:16:53.677Z,89.60
2018-12-05T00:17:53.674Z,89.60
2018-12-05T00:18:53.680Z,89.60
2018-12-05T00:19:53.688Z,89.60
2018-12-05T00:20:53.630Z,89.60
2018-12-05T00:21:53.634Z,89.54
2018-12-05T00:22:53.616Z,89.91
2018-12-05T00:23:53.608Z,90.06
2018-12-05T00:24:53.602Z,89.91
2018-12-05T00:25:53.782Z,90.26
2018-12-05T00:26:53.598Z,89.95
2018-12-05T00:27:53.573Z,89.75
2018-12-05T00:28:53.567Z,89.75
2018-12-05T00:29:53.550Z,89.54
2018-12-05T00:30:53.537Z,89.60
2018-12-05T00:31:53.517Z,89.75
2018-12-05T00:32:53.516Z,89.54
2018-12-05T00:33:53.540Z,89.64
2018-12-05T00:34:53.515Z,89.75
2018-12-05T00:35:53.482Z,90.06
2018-12-05T00:36:53.490Z,89.95
2018-12-05T00:37:53.461Z,90.06
2018-12-05T00:38:53.454Z,90.58
2018-12-05T00:39:53.449Z,90.37
2018-12-05T00:40:53.444Z,90.68
2018-12-05T00:41:53.452Z,91.00
2018-12-05T00:42:53.411Z,90.79
2018-12-05T00:43:53.394Z,90.47
2018-12-05T00:44:53.397Z,90.47
2018-12-05T00:45:53.404Z,90.26
2018-12-05T00:46:53.366Z,90.58
2018-12-05T00:47:53.381Z,90.89
2018-12-05T00:48:53.350Z,90.68
2018-12-05T00:49:53.348Z,90.68
2018-12-05T00:50:53.318Z,90.37
2018-12-05T00:51:53.379Z,90.68
2018-12-05T00:52:53.299Z,90.47
2018-12-05T00:53:53.311Z,91.41
2018-12-05T00:54:53.293Z,91.00
2018-12-05T00:55:53.266Z,90.68
2018-12-05T00:56:53.279Z,91.41
2018-12-05T00:57:53.257Z,90.47
2018-12-05T00:58:53.248Z,90.47
2018-12-05T00:59:53.244Z,90.47
2018-12-05T01:00:53.215Z,90.58
2018-12-05T01:01:53.211Z,91.10
2018-12-05T01:02:53.212Z,91.41
2018-12-05T01:03:53.201Z,90.26
2018-12-05T01:04:53.186Z,90.68
2018-12-05T01:05:53.188Z,90.58
2018-12-05T01:06:53.175Z,90.16
2018-12-05T01:07:53.166Z,90.58
2018-12-05T01:08:53.146Z,90.26
2018-12-05T01:09:53.142Z,91.41
2018-12-05T01:10:53.147Z,90.52
2018-12-05T01:11:53.124Z,90.52
2018-12-05T01:12:53.099Z,90.83
2018-12-05T01:13:53.091Z,90.83
2018-12-05T01:14:53.123Z,90.89
2018-12-05T01:15:53.077Z,91.14
2018-12-05T01:16:53.091Z,91.66
2018-12-05T01:17:53.065Z,91.35
2018-12-05T01:18:53.025Z,91.46
2018-12-05T01:19:53.020Z,91.66
2018-12-05T01:20:53.017Z,91.87
2018-12-05T01:21:52.996Z,91.87
2018-12-05T01:22:53.005Z,91.87
2018-12-05T01:23:52.987Z,91.87
2018-12-05T01:24:52.979Z,92.18
2018-12-05T01:25:52.972Z,92.08
2018-12-05T01:26:52.957Z,92.08
2018-12-05T01:27:52.984Z,91.87
2018-12-05T01:28:52.935Z,91.77
2018-12-05T01:29:52.936Z,91.97
2018-12-05T01:30:52.902Z,92.02
2018-12-05T01:31:52.904Z,92.02
2018-12-05T01:32:52.883Z,92.22
2018-12-05T01:33:52.872Z,92.33
2018-12-05T01:34:52.907Z,92.22
2018-12-05T01:35:52.852Z,92.54
2018-12-05T01:36:52.856Z,92.65
2018-12-05T01:37:52.888Z,92.65
2018-12-05T01:38:52.879Z,92.54
2018-12-05T01:39:52.833Z,92.96
2018-12-05T01:40:52.858Z,92.96
2018-12-05T01:41:52.803Z,92.85
2018-12-05T01:42:52.790Z,92.54
2018-12-05T01:43:52.813Z,93.16
2018-12-05T01:44:52.853Z,93.21
2018-12-05T01:45:52.827Z,92.79
2018-12-05T01:46:52.850Z,92.96
2018-12-05T01:47:52.753Z,92.65
2018-12-05T01:48:52.843Z,93.52
2018-12-05T01:49:52.773Z,93.00
2018-12-05T01:50:52.754Z,92.90
2018-12-05T01:51:52.711Z,93.16
2018-12-05T01:52:52.726Z,93.27
2018-12-05T01:53:52.795Z,93.06
2018-12-05T01:54:52.714Z,93.27
2018-12-05T01:55:52.693Z,93.06
2018-12-05T01:56:52.693Z,92.90
2018-12-05T01:57:52.704Z,93.06
2018-12-05T01:58:52.657Z,92.90
2018-12-05T01:59:52.682Z,92.69
2018-12-05T02:00:52.716Z,92.58
2018-12-05T02:01:52.654Z,92.54
2018-12-05T02:02:52.595Z,92.75
2018-12-05T02:03:52.606Z,92.54
2018-12-05T02:04:52.590Z,92.54
2018-12-05T02:05:52.593Z,93.21
2018-12-05T02:06:52.700Z,93.52
2018-12-05T02:07:52.605Z,93.73
2018-12-05T02:08:52.652Z,94.04
2018-12-05T02:09:52.553Z,94.04
2018-12-05T02:10:52.543Z,93.73
2018-12-05T02:11:52.590Z,93.84
2018-12-05T02:12:52.706Z,94.04
2018-12-05T02:13:52.504Z,93.94
2018-12-05T02:14:52.536Z,93.84
2018-12-05T04:22:37.271Z,96.53
2018-12-05T04:23:37.022Z,96.11
2018-12-05T04:24:37.004Z,96.78
2018-12-05T04:25:37.001Z,97.16
2018-12-05T04:26:36.982Z,96.95
2018-12-05T04:27:37.000Z,96.64
2018-12-05T04:28:36.991Z,96.89
2018-12-05T04:29:36.965Z,96.68
2018-12-05T04:30:36.958Z,96.64
2018-12-05T04:31:46.414Z,96.47
2018-12-05T04:32:36.898Z,96.78
2018-12-05T04:33:36.891Z,96.89
2018-12-05T04:34:36.876Z,96.68
2018-12-05T04:35:36.856Z,96.58
2018-12-05T04:36:36.878Z,96.58
2018-12-05T04:37:36.856Z,97.31
2018-12-05T04:38:36.833Z,97.10
2018-12-05T04:39:36.833Z,97.20
2018-12-05T04:40:36.811Z,97.31
2018-12-05T04:41:36.800Z,97.27
2018-12-05T04:42:36.811Z,97.20
2018-12-05T04:43:36.771Z,97.94
2018-12-05T04:44:36.785Z,97.72
2018-12-05T04:45:36.773Z,97.83
2018-12-05T04:46:36.754Z,97.94
2018-12-05T04:47:36.777Z,97.72
2018-12-05T04:48:36.742Z,98.04
2018-12-05T04:49:36.722Z,98.04
2018-12-05T04:50:36.723Z,97.72
2018-12-05T04:51:36.695Z,97.52
2018-12-05T04:52:36.682Z,97.83
2018-12-05T04:53:36.693Z,97.41
2018-12-05T04:54:36.675Z,98.04
2018-12-05T04:55:36.648Z,98.25
2018-12-05T04:56:36.651Z,98.04
2018-12-05T04:57:36.652Z,97.83
2018-12-05T04:58:36.634Z,97.83
2018-12-05T04:59:36.602Z,97.94
2018-12-05T05:00:36.609Z,98.04
2018-12-05T05:01:36.597Z,98.14
2018-12-05T05:02:36.603Z,98.04
2018-12-05T05:03:36.561Z,98.10
2018-12-05T05:04:36.603Z,97.99
2018-12-05T05:05:36.539Z,97.78
2018-12-05T05:06:41.662Z,98.04
2018-12-05T05:07:37.551Z,97.83
2018-12-05T05:08:36.541Z,98.14
2018-12-05T05:09:36.511Z,97.83
2018-12-05T05:10:36.553Z,97.16
2018-12-05T05:11:36.494Z,97.10
2018-12-05T05:12:36.473Z,97.20
2018-12-05T05:13:36.458Z,97.52
2018-12-05T05:14:36.488Z,97.94
2018-12-05T05:15:36.435Z,97.72
2018-12-05T05:16:36.423Z,98.04
2018-12-05T05:17:36.427Z,97.10
2018-12-05T05:18:36.411Z,97.31
2018-12-05T05:19:36.402Z,97.20
2018-12-05T05:20:36.415Z,97.20
2018-12-05T05:21:36.389Z,96.78
2018-12-05T05:22:36.365Z,96.68
2018-12-05T05:23:36.373Z,96.78
2018-12-05T05:24:36.347Z,96.72
2018-12-05T05:25:36.334Z,97.45
2018-12-05T05:26:36.365Z,97.35
2018-12-05T05:27:36.383Z,97.25
2018-12-05T05:28:36.294Z,97.77
2018-12-05T05:29:36.284Z,97.77
2018-12-05T05:30:36.285Z,98.08
2018-12-05T05:31:36.281Z,98.08
2018-12-05T05:32:36.267Z,98.08
2018-12-05T05:33:36.246Z,97.77
2018-12-05T05:34:36.237Z,98.08
2018-12-05T05:35:36.246Z,98.08
2018-12-05T05:36:36.226Z,97.77
2018-12-05T05:37:36.224Z,98.04
2018-12-05T05:38:36.211Z,97.94
2018-12-05T05:39:36.184Z,98.04
2018-12-05T05:40:36.181Z,98.25
2018-12-05T05:41:36.170Z,98.04
2018-12-05T05:42:36.169Z,97.94
2018-12-05T05:43:36.164Z,97.67
2018-12-05T05:44:36.148Z,97.72
2018-12-05T05:45:36.127Z,98.04
2018-12-05T05:46:36.117Z,97.72
2018-12-05T05:47:36.110Z,98.04
2018-12-05T05:48:36.082Z,97.77
2018-12-05T05:49:36.076Z,98.08
2018-12-05T05:50:36.072Z,97.77
2018-12-05T05:51:36.066Z,97.88
2018-12-05T05:52:36.095Z,97.77
2018-12-05T05:53:36.041Z,97.77
2018-12-05T05:54:36.025Z,97.98
2018-12-05T05:55:36.027Z,98.08
2018-12-05T05:56:36.009Z,97.77
2018-12-05T05:57:35.998Z,97.71
2018-12-05T05:58:36.029Z,98.24
2018-12-05T05:59:35.979Z,98.13
2018-12-05T06:00:35.973Z,98.13
2018-12-05T06:01:35.958Z,98.13
2018-12-05T06:02:35.950Z,98.13
2018-12-05T06:03:35.940Z,97.61
2018-12-05T06:04:35.935Z,98.24
2018-12-05T06:05:36.046Z,98.13
2018-12-05T06:06:35.923Z,98.13
2018-12-05T06:07:35.902Z,98.34
2018-12-05T06:08:35.910Z,98.65
2018-12-05T06:09:35.875Z,98.65
2018-12-05T06:10:35.858Z,98.55
2018-12-05T06:11:35.855Z,99.07
2018-12-05T06:12:36.419Z,99.49
2018-12-05T06:13:35.825Z,99.18
2018-12-05T06:14:35.856Z,99.49
2018-12-05T06:15:35.815Z,99.55
2018-12-05T06:16:35.806Z,98.97
2018-12-05T06:17:35.802Z,99.70
2018-12-05T06:18:35.796Z,98.97
2018-12-05T06:19:35.780Z,99.18
2018-12-05T06:20:35.798Z,99.38
2018-12-05T06:21:35.930Z,99.18
2018-12-05T06:22:35.753Z,98.86
2018-12-05T06:23:35.736Z,98.97
2018-12-05T06:24:35.708Z,98.75
2018-12-05T06:25:35.718Z,99.38
2018-12-05T06:27:53.121Z,99.49
2018-12-05T06:29:02.478Z,99.38
2018-12-05T06:30:02.511Z,99.43
2018-12-05T06:31:02.520Z,99.38
2018-12-05T06:31:53.059Z,99.70
2018-12-05T06:32:53.037Z,99.28
2018-12-05T06:33:53.065Z,98.97
2018-12-05T06:34:53.018Z,98.80
2018-12-05T06:35:53.020Z,99.11
2018-12-05T06:36:52.995Z,98.69
2018-12-05T06:37:52.995Z,99.74
2018-12-05T06:38:52.982Z,99.28
2018-12-05T06:39:52.983Z,99.49
2018-12-05T06:40:52.985Z,99.54
2018-12-05T06:41:52.966Z,99.59
2018-12-05T06:42:52.949Z,99.32
2018-12-05T06:43:52.964Z,99.59
2018-12-05T06:44:52.930Z,99.70
2018-12-05T06:45:53.211Z,99.32
2018-12-05T06:46:52.902Z,99.85
2018-12-05T06:47:52.898Z,99.70
2018-12-05T06:48:52.889Z,99.54
2018-12-05T06:49:52.897Z,99.74
2018-12-05T06:50:52.867Z,99.59
2018-12-05T06:51:52.883Z,99.11
2018-12-05T06:52:52.846Z,99.59
2018-12-05T06:53:52.827Z,99.64
2018-12-05T06:54:52.815Z,99.54
2018-12-05T06:55:52.803Z,99.38
2018-12-05T06:56:52.825Z,99.64
2018-12-05T06:57:52.815Z,99.18
2018-12-05T06:58:52.797Z,99.99
2018-12-05T06:59:52.817Z,99.99
2018-12-05T07:00:52.749Z,99.99
2018-12-05T07:01:52.742Z,99.99
2018-12-05T07:02:52.747Z,99.91
2018-12-05T07:03:52.738Z,99.99
2018-12-05T07:04:52.732Z,99.91
2018-12-05T07:05:52.723Z,99.99
2018-12-05T07:06:52.716Z,99.99
2018-12-05T07:07:52.711Z,99.91
2018-12-05T07:08:52.684Z,99.91
2018-12-05T07:09:52.674Z,99.95
2018-12-05T07:10:52.707Z,99.99
2018-12-05T07:11:52.639Z,99.99
2018-12-05T07:12:52.627Z,99.99
2018-12-05T07:13:52.629Z,99.99
2018-12-05T07:14:52.615Z,99.99
2018-12-05T07:15:52.619Z,99.99
2018-12-05T07:16:52.608Z,99.80
2018-12-05T07:17:52.622Z,99.99
2018-12-05T07:18:52.575Z,99.99
2018-12-05T07:19:52.642Z,99.99
2018-12-05T07:20:52.546Z,99.99
2018-12-05T07:21:52.538Z,99.99
2018-12-05T07:22:52.538Z,99.99
2018-12-05T07:23:52.593Z,99.99
2018-12-05T07:24:52.539Z,99.99
2018-12-05T07:25:52.502Z,99.59
2018-12-05T07:26:52.510Z,99.85
2018-12-05T07:27:52.494Z,99.59
2018-12-05T07:28:52.504Z,99.91
2018-12-05T07:29:52.470Z,99.99
2018-12-05T07:30:52.460Z,99.96
2018-12-05T07:31:52.469Z,99.99
2018-12-05T07:32:52.435Z,99.99
2018-12-05T07:33:52.426Z,99.96
2018-12-05T07:34:52.414Z,99.99
2018-12-05T07:35:52.412Z,99.99
2018-12-05T07:36:52.393Z,99.44
2018-12-05T07:37:52.381Z,99.24
2018-12-05T07:38:52.386Z,99.08
2018-12-05T07:39:52.376Z,99.55
2018-12-05T07:40:52.376Z,99.08
2018-12-05T07:41:52.348Z,99.40
2018-12-05T07:42:52.342Z,99.82
2018-12-05T07:43:52.322Z,99.29
2018-12-05T07:44:52.317Z,98.77
2018-12-05T07:45:52.301Z,98.98
2018-12-05T07:46:52.283Z,99.19
2018-12-05T07:47:52.314Z,99.40
2018-12-05T07:48:52.260Z,98.88
2018-12-05T07:49:52.277Z,98.56
2018-12-05T07:50:52.260Z,98.46
2018-12-05T07:51:52.247Z,98.56
2018-12-05T07:52:52.245Z,98.25
2018-12-05T07:53:52.254Z,98.25
2018-12-05T07:54:52.249Z,98.35
2018-12-05T07:55:52.235Z,97.94
2018-12-05T07:56:52.207Z,98.04
2018-12-05T07:57:52.169Z,97.83
2018-12-05T07:58:52.194Z,97.94
2018-12-05T07:59:52.151Z,97.83
2018-12-05T08:00:52.143Z,97.99
2018-12-05T08:01:52.152Z,97.68
2018-12-05T08:02:52.126Z,97.89
2018-12-05T08:03:52.128Z,97.99
2018-12-05T08:04:52.098Z,98.10
2018-12-05T08:05:52.096Z,97.89
2018-12-05T08:06:52.167Z,97.99
2018-12-05T08:07:52.063Z,97.27
2018-12-05T08:08:52.106Z,97.78
2018-12-05T08:09:52.052Z,97.58
2018-12-05T08:10:52.038Z,97.89
2018-12-05T08:11:52.044Z,97.16
2018-12-05T08:12:52.076Z,97.27
2018-12-05T08:13:52.017Z,97.05
2018-12-05T08:14:52.008Z,96.95
2018-12-05T08:15:52.013Z,97.37
2018-12-05T08:16:52.028Z,97.05
2018-12-05T08:17:51.992Z,96.70
2018-12-05T08:18:51.964Z,96.59
2018-12-05T08:19:51.950Z,97.01
2018-12-05T08:20:51.964Z,96.95
2018-12-05T08:21:51.916Z,96.91
2018-12-05T08:22:51.951Z,96.07
2018-12-05T08:23:51.939Z,96.38
2018-12-05T08:24:51.891Z,96.28
2018-12-05T08:25:51.878Z,96.28
2018-12-05T08:26:51.895Z,96.28
2018-12-05T08:27:51.869Z,96.17
2018-12-05T08:28:51.874Z,95.65
2018-12-05T08:29:51.861Z,95.76
2018-12-05T08:30:51.837Z,96.13
2018-12-05T08:31:51.820Z,96.03
2018-12-05T08:32:51.824Z,95.92
2018-12-05T08:33:51.805Z,95.92
2018-12-05T08:34:51.838Z,95.40
2018-12-05T08:35:51.776Z,95.67
2018-12-05T08:36:51.761Z,95.50
2018-12-05T08:37:51.749Z,95.36
2018-12-05T08:38:51.757Z,94.73
2018-12-05T08:39:51.742Z,94.73
2018-12-05T08:40:51.776Z,94.31
2018-12-05T08:41:51.730Z,94.42
2018-12-05T08:42:51.697Z,94.42
2018-12-05T08:43:51.699Z,94.10
2018-12-05T08:44:51.688Z,93.96
2018-12-05T08:45:51.677Z,93.96
2018-12-05T08:46:51.681Z,93.54
2018-12-05T08:47:52.134Z,93.44
2018-12-05T08:48:52.151Z,93.65
2018-12-05T08:49:51.805Z,93.54
2018-12-05T08:50:51.658Z,93.54
2018-12-05T08:51:51.655Z,93.40
2018-12-05T08:52:51.657Z,93.60
2018-12-05T08:53:51.597Z,93.18
2018-12-05T08:54:51.609Z,93.08
2018-12-05T08:55:51.587Z,92.87
2018-12-05T08:56:51.570Z,92.97
2018-12-05T08:57:51.592Z,92.77
2018-12-05T08:58:51.586Z,92.35
2018-12-05T08:59:51.559Z,92.31
2018-12-05T09:00:51.532Z,92.00
2018-12-05T09:01:51.514Z,91.47
2018-12-05T09:02:51.507Z,91.47
2018-12-05T09:03:51.519Z,91.78
2018-12-05T09:04:51.484Z,91.37
2018-12-05T09:05:51.472Z,91.53
2018-12-05T09:06:51.462Z,91.53
2018-12-05T09:07:51.544Z,90.70
2018-12-05T09:08:51.439Z,90.70
2018-12-05T09:09:51.483Z,91.02
2018-12-05T09:10:51.411Z,90.70
2018-12-05T09:11:51.410Z,90.50
2018-12-05T09:12:51.400Z,90.77
2018-12-05T09:13:51.408Z,90.39
2018-12-05T09:14:51.378Z,89.45
2018-12-05T09:15:51.371Z,90.04
2018-12-05T09:16:51.343Z,89.62
2018-12-05T09:17:51.346Z,89.41
2018-12-05T09:18:51.336Z,89.52
2018-12-05T09:19:51.341Z,88.64
2018-12-05T09:20:51.330Z,88.02
2018-12-05T09:21:51.293Z,88.33
2018-12-05T09:22:51.288Z,88.02
2018-12-05T09:23:51.290Z,87.50
2018-12-05T09:24:51.278Z,87.81
2018-12-05T09:25:51.262Z,88.02
2018-12-05T09:26:51.281Z,87.71
2018-12-05T09:27:51.255Z,87.66
2018-12-05T09:28:57.230Z,86.63
2018-12-05T09:29:52.234Z,86.83
2018-12-05T09:30:51.213Z,87.01
2018-12-05T09:31:51.243Z,86.90
2018-12-05T09:32:51.193Z,87.32
2018-12-05T09:33:51.188Z,86.59
2018-12-05T09:34:51.185Z,86.49
2018-12-05T09:35:51.166Z,86.17
2018-12-05T09:36:51.159Z,85.55
2018-12-05T09:37:51.184Z,85.93
2018-12-05T09:38:51.130Z,85.41
2018-12-05T09:39:51.129Z,86.03
2018-12-05T09:40:51.095Z,85.30
2018-12-05T09:41:51.093Z,84.84
2018-12-05T09:42:51.079Z,85.05
2018-12-05T09:43:51.111Z,84.74
2018-12-05T09:44:51.088Z,84.12
2018-12-05T09:45:51.069Z,84.22
2018-12-05T09:46:51.050Z,83.70
2018-12-05T09:47:51.046Z,84.01
2018-12-05T09:48:51.030Z,83.77
2018-12-05T09:49:51.021Z,83.56
2018-12-05T09:50:51.011Z,83.56
2018-12-05T09:51:50.997Z,83.15
2018-12-05T09:52:51.016Z,83.15
2018-12-05T09:53:50.972Z,82.73
2018-12-05T09:54:50.954Z,82.59
2018-12-05T09:55:50.965Z,82.49
2018-12-05T09:56:50.944Z,81.87
2018-12-05T09:57:50.927Z,81.35
2018-12-05T09:58:50.988Z,81.66
2018-12-05T09:59:50.916Z,81.72
2018-12-05T10:00:50.903Z,80.99
2018-12-05T10:01:50.894Z,81.24
2018-12-05T10:02:50.885Z,81.51
2018-12-05T10:03:50.864Z,80.89
2018-12-05T10:04:50.869Z,80.47
2018-12-05T10:05:50.855Z,80.89
2018-12-05T10:06:50.839Z,80.47
2018-12-05T10:07:50.833Z,80.37
2018-12-05T10:08:50.830Z,80.44
2018-12-05T10:09:50.812Z,80.33
2018-12-05T10:10:50.817Z,80.33
2018-12-05T10:11:50.796Z,80.23
2018-12-05T10:12:50.782Z,79.30
2018-12-05T10:13:50.764Z,79.41
2018-12-05T10:14:50.799Z,79.68
2018-12-05T10:15:50.745Z,78.85
2018-12-05T10:16:50.735Z,79.06
2018-12-05T10:17:50.750Z,78.33
2018-12-05T10:18:50.716Z,79.06
2018-12-05T10:19:50.697Z,78.85
2018-12-05T10:20:56.018Z,78.96
2018-12-05T10:21:51.684Z,78.33
2018-12-05T10:22:50.670Z,77.98
2018-12-05T10:23:50.660Z,78.30
2018-12-05T10:24:50.645Z,78.61
2018-12-05T10:25:50.652Z,78.19
2018-12-05T10:26:50.652Z,77.74
2018-12-05T10:27:50.652Z,77.84
2018-12-05T10:28:50.622Z,77.33
2018-12-05T10:29:50.675Z,77.12
2018-12-05T10:30:50.591Z,76.91
2018-12-05T10:32:00.591Z,76.81
2018-12-05T10:32:50.621Z,77.01
2018-12-05T10:33:50.595Z,76.50
2018-12-05T10:34:50.601Z,75.88
2018-12-05T10:35:50.721Z,75.98
2018-12-05T10:36:50.551Z,75.88
2018-12-05T10:37:50.580Z,76.09
2018-12-05T10:38:51.497Z,75.74
2018-12-05T10:39:50.768Z,75.46
2018-12-05T10:40:50.864Z,76.19
2018-12-05T10:41:50.509Z,75.88
2018-12-05T10:42:50.592Z,75.32
2018-12-05T10:43:50.995Z,75.22
2018-12-05T10:44:50.502Z,75.22
2018-12-05T10:45:51.002Z,75.02
2018-12-05T10:46:50.514Z,75.12
2018-12-05T10:47:50.445Z,74.81
2018-12-05T10:48:51.637Z,74.67
2018-12-05T10:49:50.438Z,74.81
2018-12-05T10:50:50.461Z,75.32
2018-12-05T10:51:50.399Z,74.29
2018-12-05T10:52:50.436Z,74.08
2018-12-05T10:53:50.348Z,73.33
2018-12-05T10:54:50.390Z,73.67
2018-12-05T10:55:50.364Z,73.36
2018-12-05T10:56:50.491Z,73.84
2018-12-05T10:57:50.322Z,73.67
2018-12-05T10:58:50.325Z,74.26
2018-12-05T10:59:50.340Z,73.54
2018-12-05T11:00:50.442Z,73.98
2018-12-05T11:01:50.323Z,73.54
2018-12-05T11:02:50.265Z,73.64
2018-12-05T11:03:50.261Z,73.02
2018-12-05T11:04:50.539Z,73.33
2018-12-05T11:05:50.337Z,73.74
2018-12-05T11:06:50.232Z,73.74
2018-12-05T11:07:50.238Z,73.64
2018-12-05T11:08:50.222Z,73.54
2018-12-05T11:09:50.243Z,73.94
2018-12-05T11:10:50.358Z,73.71
2018-12-05T11:11:50.175Z,73.08
2018-12-05T11:12:50.312Z,73.50
2018-12-05T11:13:50.139Z,73.71
2018-12-05T11:14:50.154Z,73.19
2018-12-05T11:15:50.206Z,73.19
2018-12-05T11:16:50.176Z,73.60
2018-12-05T11:17:50.195Z,73.29
2018-12-05T11:18:50.112Z,73.60
2018-12-05T11:19:50.096Z,73.77
2018-12-05T11:20:50.133Z,73.29
2018-12-05T11:21:50.128Z,73.71
2018-12-05T11:22:50.104Z,73.16
2018-12-05T11:23:50.175Z,73.19
2018-12-05T11:24:50.072Z,73.60
2018-12-05T11:25:50.103Z,72.85
2018-12-05T11:26:50.046Z,73.26
2018-12-05T11:27:50.018Z,73.47
2018-12-05T11:28:50.057Z,71.71
2018-12-05T11:29:49.985Z,72.12
2018-12-05T11:30:49.998Z,72.12
2018-12-05T11:31:49.951Z,71.71
2018-12-05T11:32:50.293Z,72.12
2018-12-05T11:33:50.500Z,72.22
2018-12-05T11:34:49.909Z,72.12
2018-12-05T11:35:50.159Z,71.19
2018-12-05T11:36:49.937Z,71.09
2018-12-05T11:37:49.944Z,71.67
2018-12-05T11:38:49.887Z,71.50
2018-12-05T11:39:50.058Z,70.67
2018-12-05T11:40:49.881Z,71.09
2018-12-05T11:41:49.947Z,70.26
2018-12-05T11:42:49.955Z,70.75
2018-12-05T11:44:01.546Z,70.37
2018-12-05T11:44:49.899Z,70.06
2018-12-05T11:45:49.803Z,69.12
2018-12-05T11:46:49.800Z,68.92
2018-12-05T11:47:49.832Z,69.43
2018-12-05T11:48:58.681Z,68.51
2018-12-05T11:49:59.268Z,68.58
2018-12-05T11:50:50.607Z,68.37
2018-12-05T11:51:59.234Z,68.37
2018-12-05T11:52:49.751Z,67.96
2018-12-05T11:53:49.717Z,68.48
2018-12-05T11:54:49.740Z,68.27
2018-12-05T11:55:49.721Z,67.34
2018-12-05T11:56:49.722Z,67.44
2018-12-05T11:57:49.696Z,67.44
2018-12-05T11:58:49.840Z,67.85
2018-12-05T11:59:49.828Z,68.16
2018-12-05T12:00:59.672Z,67.85
2018-12-05T12:01:49.646Z,68.37
2018-12-05T12:02:50.677Z,68.51
2018-12-05T12:03:49.612Z,68.16
2018-12-05T12:04:49.667Z,68.88
2018-12-05T12:05:49.751Z,67.65
2018-12-05T12:06:49.646Z,67.44
2018-12-05T12:07:49.623Z,66.89
2018-12-05T12:08:49.605Z,67.51
2018-12-05T12:09:49.797Z,66.93
2018-12-05T12:10:49.825Z,66.51
2018-12-05T12:11:49.591Z,67.24
2018-12-05T12:12:49.811Z,66.93
2018-12-05T12:13:49.518Z,68.06
2018-12-05T12:14:49.520Z,66.61
2018-12-05T12:15:49.563Z,66.58
2018-12-05T12:16:49.571Z,67.51
2018-12-05T12:17:49.524Z,67.21
2018-12-05T12:18:49.604Z,67.00
2018-12-05T12:19:49.485Z,67.61
2018-12-05T12:20:49.479Z,67.61
2018-12-05T12:21:49.453Z,67.41
2018-12-05T12:22:49.609Z,66.89
2018-12-05T12:23:49.559Z,66.89
2018-12-05T12:24:49.438Z,66.69
2018-12-05T12:25:49.454Z,66.17
2018-12-05T12:26:49.499Z,65.86
2018-12-05T12:27:49.395Z,65.76
2018-12-05T12:28:49.446Z,65.76
2018-12-05T12:29:49.659Z,64.62
2018-12-05T12:30:49.534Z,64.31
2018-12-05T12:31:49.331Z,63.90
2018-12-05T12:32:49.312Z,64.21
2018-12-05T12:33:49.322Z,64.11
2018-12-05T12:34:49.438Z,63.69
2018-12-05T12:35:49.298Z,64.21
2018-12-05T12:36:49.295Z,64.62
2018-12-05T12:37:49.377Z,63.49
2018-12-05T12:38:50.179Z,62.76
2018-12-05T12:39:49.816Z,62.66
2018-12-05T12:40:49.315Z,62.55
2018-12-05T12:41:50.179Z,62.97
2018-12-05T12:42:49.287Z,61.73
2018-12-05T12:43:49.432Z,62.07
2018-12-05T12:44:49.382Z,62.66
2018-12-05T12:45:49.300Z,62.66
2018-12-05T12:46:49.627Z,62.76
2018-12-05T12:47:49.498Z,63.07
2018-12-05T12:48:49.195Z,62.76
2018-12-05T12:49:49.161Z,62.76
2018-12-05T12:50:49.128Z,62.46
2018-12-05T12:51:49.181Z,63.28
2018-12-05T12:52:49.130Z,62.87
2018-12-05T12:53:49.483Z,62.35
2018-12-05T12:54:49.669Z,63.10
2018-12-05T12:55:49.199Z,62.69
2018-12-05T12:56:49.276Z,63.10
2018-12-05T12:57:49.124Z,64.24
2018-12-05T12:58:49.133Z,64.14
2018-12-05T12:59:49.222Z,63.82
2018-12-05T13:00:49.303Z,64.65
2018-12-05T13:01:49.021Z,64.86
2018-12-05T13:02:49.074Z,63.93
2018-12-05T13:03:49.300Z,63.10
2018-12-05T13:04:48.988Z,62.59
2018-12-05T13:05:49.150Z,63.42
2018-12-05T13:06:49.054Z,63.28
2018-12-05T13:07:49.062Z,62.66
2018-12-05T13:08:48.949Z,63.07
2018-12-05T13:09:48.943Z,62.12
2018-12-05T13:10:48.979Z,61.91
2018-12-05T13:11:48.975Z,60.95
2018-12-05T13:12:48.936Z,60.47
2018-12-05T13:13:49.279Z,60.33
2018-12-05T13:14:48.961Z,60.44
2018-12-05T13:15:48.922Z,60.33
2018-12-05T13:16:49.029Z,60.51
2018-12-05T13:17:48.887Z,60.64
2018-12-05T13:18:49.222Z,60.54
2018-12-05T13:19:48.961Z,60.98
2018-12-05T13:20:49.693Z,61.50
2018-12-05T13:21:48.810Z,61.50
2018-12-05T13:22:48.857Z,62.04
2018-12-05T13:23:48.808Z,63.28
2018-12-05T13:24:48.903Z,62.66
2018-12-05T13:25:48.826Z,62.59
2018-12-05T13:26:49.128Z,62.87
2018-12-05T13:27:48.895Z,63.31
2018-12-05T13:28:48.858Z,63.10
2018-12-05T13:29:49.119Z,63.59
2018-12-05T13:30:48.987Z,63.49
2018-12-05T13:31:48.699Z,62.76
2018-12-05T13:32:48.721Z,62.04
2018-12-05T13:33:48.739Z,62.46
2018-12-05T13:34:48.762Z,63.07
2018-12-05T13:35:48.968Z,62.46
2018-12-05T13:36:48.801Z,62.69
2018-12-05T13:37:48.791Z,62.72
2018-12-05T13:38:48.655Z,64.03
2018-12-05T13:39:48.668Z,64.24
2018-12-05T13:40:48.865Z,64.68
2018-12-05T13:41:48.716Z,64.37
2018-12-05T13:42:48.621Z,64.58
2018-12-05T13:43:48.596Z,64.99
2018-12-05T13:44:48.694Z,64.55
2018-12-05T13:45:48.561Z,62.74
2018-12-05T13:46:49.746Z,61.91
2018-12-05T13:47:48.698Z,60.98
2018-12-05T13:48:48.738Z,62.35
2018-12-05T13:49:48.632Z,62.27
2018-12-05T13:50:48.655Z,63.21
2018-12-05T13:51:48.525Z,64.37
2018-12-05T13:52:49.688Z,64.37
2018-12-05T13:53:48.950Z,64.61
2018-12-05T13:54:48.482Z,64.40
2018-12-05T13:55:48.676Z,64.84
2018-12-05T13:56:48.451Z,65.05
2018-12-05T13:57:48.476Z,65.33
2018-12-05T13:58:48.499Z,66.16
2018-12-05T13:59:48.589Z,65.99
2018-12-05T14:00:48.497Z,66.60
2018-12-05T14:01:48.561Z,66.60
2018-12-05T14:02:48.757Z,66.63
2018-12-05T14:03:49.515Z,67.36
2018-12-05T14:04:48.850Z,67.15
2018-12-05T14:05:48.539Z,67.98
2018-12-05T14:06:48.517Z,67.67
2018-12-05T14:07:48.396Z,68.08
2018-12-05T14:08:48.872Z,68.40
2018-12-05T14:09:48.426Z,68.63
2018-12-05T14:10:48.640Z,68.53
2018-12-05T14:11:48.302Z,68.63
2018-12-05T14:12:48.278Z,68.63
2018-12-05T14:13:49.077Z,69.01
2018-12-05T14:14:48.286Z,69.25
2018-12-05T14:15:49.190Z,69.56
2018-12-05T14:16:48.327Z,69.15
2018-12-05T14:17:48.719Z,69.56
2018-12-05T14:18:48.748Z,69.46
2018-12-05T14:19:48.289Z,69.98
2018-12-05T14:20:49.196Z,69.87
2018-12-05T14:21:48.197Z,69.77
2018-12-05T14:22:48.189Z,69.15
2018-12-05T14:23:48.262Z,70.01
2018-12-05T14:24:48.315Z,69.70
2018-12-05T14:25:48.758Z,69.80
2018-12-05T14:26:50.203Z,69.80
2018-12-05T14:27:48.130Z,70.21
2018-12-05T14:28:48.266Z,70.21
2018-12-05T14:29:48.202Z,70.36
2018-12-05T14:30:48.199Z,70.25
2018-12-05T14:31:48.102Z,71.39
2018-12-05T14:32:48.693Z,70.87
2018-12-05T14:33:48.087Z,70.15
2018-12-05T14:34:48.730Z,71.28
2018-12-05T14:35:48.889Z,71.84
2018-12-05T14:36:48.914Z,71.84
2018-12-05T14:37:48.096Z,72.15
2018-12-05T14:38:48.069Z,71.32
2018-12-05T14:39:48.669Z,72.05
2018-12-05T14:40:48.109Z,71.73
2018-12-05T14:41:48.106Z,71.73
2018-12-05T14:42:48.012Z,71.73
2018-12-05T14:43:48.169Z,71.42
2018-12-05T14:44:47.948Z,71.94
2018-12-05T14:45:48.224Z,71.94
2018-12-05T14:46:48.100Z,71.77
2018-12-05T14:47:47.931Z,71.97
2018-12-05T14:48:47.911Z,71.77
2018-12-05T14:49:47.957Z,71.97
2018-12-05T14:50:47.967Z,72.28
2018-12-05T14:51:48.002Z,72.18
2018-12-05T14:52:48.342Z,72.11
2018-12-05T14:53:48.015Z,72.80
2018-12-05T14:54:48.226Z,72.74
2018-12-05T14:55:47.884Z,72.74
2018-12-05T14:56:47.955Z,72.74
2018-12-05T14:57:47.867Z,73.57
2018-12-05T14:58:48.796Z,73.77
2018-12-05T14:59:48.431Z,73.88
2018-12-05T15:00:50.486Z,73.80